sensor_id;sensor_type;location;lat;lon;timestamp;temperature;humidity
51637;DHT22;37713;53.254;6.460;2022-10-16T00:01:58;11.50;99.90
51637;DHT22;37713;53.254;6.460;2022-10-16T00:04:24;11.40;99.90
51637;DHT22;37713;53.254;6.460;2022-10-16T00:06:49;11.60;99.90
51637;DHT22;37713;53.254;6.460;2022-10-16T00:09:15;11.60;99.90
51637;DHT22;37713;53.254;6.460;2022-10-16T00:11:41;11.50;99.90
51637;DHT22;37713;53.254;6.460;2022-10-16T00:14:13;11.40;99.90
51637;DHT22;37713;53.254;6.460;2022-10-16T00:16:39;11.50;99.90
51637;DHT22;37713;53.254;6.460;2022-10-16T00:19:05;11.50;99.90
51637;DHT22;37713;53.254;6.460;2022-10-16T00:21:32;11.50;99.90
51637;DHT22;37713;53.254;6.460;2022-10-16T00:24:00;11.30;99.90
51637;DHT22;37713;53.254;6.460;2022-10-16T00:26:27;11.30;99.90
51637;DHT22;37713;53.254;6.460;2022-10-16T00:28:53;11.50;99.90
51637;DHT22;37713;53.254;6.460;2022-10-16T00:31:20;11.40;99.90
51637;DHT22;37713;53.254;6.460;2022-10-16T00:33:47;11.40;99.90
51637;DHT22;37713;53.254;6.460;2022-10-16T00:36:15;11.50;99.90
51637;DHT22;37713;53.254;6.460;2022-10-16T00:38:42;11.50;99.90
51637;DHT22;37713;53.254;6.460;2022-10-16T00:41:12;11.40;99.90
51637;DHT22;37713;53.254;6.460;2022-10-16T00:46:16;11.30;99.90
51637;DHT22;37713;53.254;6.460;2022-10-16T00:48:50;11.40;99.90
51637;DHT22;37713;53.254;6.460;2022-10-16T00:51:20;11.40;99.90
51637;DHT22;37713;53.254;6.460;2022-10-16T00:53:48;11.40;99.90
51637;DHT22;37713;53.254;6.460;2022-10-16T00:56:14;11.50;99.90
51637;DHT22;37713;53.254;6.460;2022-10-16T00:58:40;11.20;99.90
51637;DHT22;37713;53.254;6.460;2022-10-16T01:01:06;11.30;99.90
51637;DHT22;37713;53.254;6.460;2022-10-16T01:03:35;11.60;99.90
51637;DHT22;37713;53.254;6.460;2022-10-16T01:06:21;11.50;99.90
51637;DHT22;37713;53.254;6.460;2022-10-16T01:12:09;11.50;99.90
51637;DHT22;37713;53.254;6.460;2022-10-16T01:14:56;11.50;99.90
51637;DHT22;37713;53.254;6.460;2022-10-16T01:20:28;11.40;99.90
51637;DHT22;37713;53.254;6.460;2022-10-16T01:29:03;11.40;99.90
51637;DHT22;37713;53.254;6.460;2022-10-16T01:31:34;11.50;99.90
51637;DHT22;37713;53.254;6.460;2022-10-16T01:34:09;11.50;99.90
51637;DHT22;37713;53.254;6.460;2022-10-16T01:36:44;11.70;99.90
51637;DHT22;37713;53.254;6.460;2022-10-16T01:39:11;11.60;99.90
51637;DHT22;37713;53.254;6.460;2022-10-16T01:41:41;11.60;99.90
51637;DHT22;37713;53.254;6.460;2022-10-16T01:46:46;11.60;99.90
51637;DHT22;37713;53.254;6.460;2022-10-16T01:49:14;11.80;99.90
51637;DHT22;37713;53.254;6.460;2022-10-16T01:51:44;11.70;99.90
51637;DHT22;37713;53.254;6.460;2022-10-16T01:54:11;11.80;99.90
51637;DHT22;37713;53.254;6.460;2022-10-16T01:56:39;11.80;99.90
51637;DHT22;37713;53.254;6.460;2022-10-16T01:59:10;11.70;99.90
51637;DHT22;37713;53.254;6.460;2022-10-16T02:01:39;11.80;99.90
51637;DHT22;37713;53.254;6.460;2022-10-16T02:06:43;11.80;99.90
51637;DHT22;37713;53.254;6.460;2022-10-16T02:09:09;11.80;99.90
51637;DHT22;37713;53.254;6.460;2022-10-16T02:11:35;12.00;99.90
51637;DHT22;37713;53.254;6.460;2022-10-16T02:14:04;11.90;99.90
51637;DHT22;37713;53.254;6.460;2022-10-16T02:16:42;11.80;99.90
51637;DHT22;37713;53.254;6.460;2022-10-16T02:19:09;11.80;99.90
51637;DHT22;37713;53.254;6.460;2022-10-16T02:27:06;12.00;99.90
51637;DHT22;37713;53.254;6.460;2022-10-16T02:29:40;12.00;99.90
51637;DHT22;37713;53.254;6.460;2022-10-16T02:32:07;11.90;99.90
51637;DHT22;37713;53.254;6.460;2022-10-16T02:34:36;12.00;99.90
51637;DHT22;37713;53.254;6.460;2022-10-16T02:37:04;12.00;99.90
51637;DHT22;37713;53.254;6.460;2022-10-16T02:39:31;11.90;99.90
51637;DHT22;37713;53.254;6.460;2022-10-16T02:41:57;12.10;99.90
51637;DHT22;37713;53.254;6.460;2022-10-16T02:44:22;12.10;99.90
51637;DHT22;37713;53.254;6.460;2022-10-16T02:46:48;12.10;99.90
51637;DHT22;37713;53.254;6.460;2022-10-16T02:49:14;12.10;99.90
51637;DHT22;37713;53.254;6.460;2022-10-16T02:51:39;12.10;99.90
51637;DHT22;37713;53.254;6.460;2022-10-16T02:54:05;12.00;99.90
51637;DHT22;37713;53.254;6.460;2022-10-16T02:56:31;12.00;99.90
51637;DHT22;37713;53.254;6.460;2022-10-16T02:58:57;11.80;99.90
51637;DHT22;37713;53.254;6.460;2022-10-16T03:01:23;11.90;99.90
51637;DHT22;37713;53.254;6.460;2022-10-16T03:03:49;12.00;99.90
51637;DHT22;37713;53.254;6.460;2022-10-16T03:06:15;11.80;99.90
51637;DHT22;37713;53.254;6.460;2022-10-16T03:08:41;11.90;99.90
51637;DHT22;37713;53.254;6.460;2022-10-16T03:11:06;11.70;99.90
51637;DHT22;37713;53.254;6.460;2022-10-16T03:13:32;11.70;99.90
51637;DHT22;37713;53.254;6.460;2022-10-16T03:15:58;11.70;99.90
51637;DHT22;37713;53.254;6.460;2022-10-16T03:18:23;11.60;99.90
51637;DHT22;37713;53.254;6.460;2022-10-16T03:20:49;11.50;99.90
51637;DHT22;37713;53.254;6.460;2022-10-16T03:23:15;11.50;99.90
51637;DHT22;37713;53.254;6.460;2022-10-16T03:25:41;11.40;99.90
51637;DHT22;37713;53.254;6.460;2022-10-16T03:28:06;11.50;99.90
51637;DHT22;37713;53.254;6.460;2022-10-16T03:30:32;11.30;99.90
51637;DHT22;37713;53.254;6.460;2022-10-16T03:32:58;11.40;99.90
51637;DHT22;37713;53.254;6.460;2022-10-16T03:35:24;11.40;99.90
51637;DHT22;37713;53.254;6.460;2022-10-16T03:37:50;11.50;99.90
51637;DHT22;37713;53.254;6.460;2022-10-16T03:40:16;11.50;99.90
51637;DHT22;37713;53.254;6.460;2022-10-16T03:42:43;11.30;99.90
51637;DHT22;37713;53.254;6.460;2022-10-16T03:45:09;11.30;99.90
51637;DHT22;37713;53.254;6.460;2022-10-16T03:47:35;11.40;99.90
51637;DHT22;37713;53.254;6.460;2022-10-16T03:50:01;11.40;99.90
51637;DHT22;37713;53.254;6.460;2022-10-16T03:52:27;11.40;99.90
51637;DHT22;37713;53.254;6.460;2022-10-16T03:54:53;11.50;99.90
51637;DHT22;37713;53.254;6.460;2022-10-16T03:57:19;11.40;99.90
51637;DHT22;37713;53.254;6.460;2022-10-16T03:59:46;11.50;99.90
51637;DHT22;37713;53.254;6.460;2022-10-16T04:02:12;11.30;99.90
51637;DHT22;37713;53.254;6.460;2022-10-16T04:04:37;11.30;99.90
51637;DHT22;37713;53.254;6.460;2022-10-16T04:07:03;11.50;99.90
51637;DHT22;37713;53.254;6.460;2022-10-16T04:09:29;11.50;99.90
51637;DHT22;37713;53.254;6.460;2022-10-16T04:11:55;11.50;99.90
51637;DHT22;37713;53.254;6.460;2022-10-16T04:14:20;11.30;99.90
51637;DHT22;37713;53.254;6.460;2022-10-16T04:16:46;11.20;99.90
51637;DHT22;37713;53.254;6.460;2022-10-16T04:19:12;11.30;99.90
51637;DHT22;37713;53.254;6.460;2022-10-16T04:21:38;11.40;99.90
51637;DHT22;37713;53.254;6.460;2022-10-16T04:24:04;11.30;99.90
51637;DHT22;37713;53.254;6.460;2022-10-16T04:26:30;11.40;99.90
51637;DHT22;37713;53.254;6.460;2022-10-16T04:28:56;11.40;99.90
51637;DHT22;37713;53.254;6.460;2022-10-16T04:31:21;11.20;99.90
51637;DHT22;37713;53.254;6.460;2022-10-16T04:33:48;11.40;99.90
51637;DHT22;37713;53.254;6.460;2022-10-16T04:36:13;11.50;99.90
51637;DHT22;37713;53.254;6.460;2022-10-16T04:38:40;11.50;99.90
51637;DHT22;37713;53.254;6.460;2022-10-16T04:41:07;11.50;99.90
51637;DHT22;37713;53.254;6.460;2022-10-16T04:43:33;11.30;99.90
51637;DHT22;37713;53.254;6.460;2022-10-16T04:45:59;11.50;99.90
51637;DHT22;37713;53.254;6.460;2022-10-16T04:48:25;11.60;99.90
51637;DHT22;37713;53.254;6.460;2022-10-16T04:50:51;11.60;99.90
51637;DHT22;37713;53.254;6.460;2022-10-16T04:53:17;11.40;99.90
51637;DHT22;37713;53.254;6.460;2022-10-16T04:55:43;11.50;99.90
51637;DHT22;37713;53.254;6.460;2022-10-16T04:58:09;11.50;99.90
51637;DHT22;37713;53.254;6.460;2022-10-16T05:00:35;11.70;99.90
51637;DHT22;37713;53.254;6.460;2022-10-16T05:03:01;11.50;99.90
51637;DHT22;37713;53.254;6.460;2022-10-16T05:05:31;11.50;99.90
51637;DHT22;37713;53.254;6.460;2022-10-16T05:07:56;11.50;99.90
51637;DHT22;37713;53.254;6.460;2022-10-16T05:10:22;11.80;99.90
51637;DHT22;37713;53.254;6.460;2022-10-16T05:12:48;11.80;99.90
51637;DHT22;37713;53.254;6.460;2022-10-16T05:15:14;11.70;99.90
51637;DHT22;37713;53.254;6.460;2022-10-16T05:17:40;11.90;99.90
51637;DHT22;37713;53.254;6.460;2022-10-16T05:20:06;11.70;99.90
51637;DHT22;37713;53.254;6.460;2022-10-16T05:22:32;11.70;99.90
51637;DHT22;37713;53.254;6.460;2022-10-16T05:24:58;11.70;99.90
51637;DHT22;37713;53.254;6.460;2022-10-16T05:27:23;11.90;99.90
51637;DHT22;37713;53.254;6.460;2022-10-16T05:29:49;11.90;99.90
51637;DHT22;37713;53.254;6.460;2022-10-16T05:32:17;11.70;99.90
51637;DHT22;37713;53.254;6.460;2022-10-16T05:34:43;11.80;99.90
51637;DHT22;37713;53.254;6.460;2022-10-16T05:37:09;11.80;99.90
51637;DHT22;37713;53.254;6.460;2022-10-16T05:39:37;11.90;99.90
51637;DHT22;37713;53.254;6.460;2022-10-16T05:42:04;11.70;99.90
51637;DHT22;37713;53.254;6.460;2022-10-16T05:44:29;11.90;99.90
51637;DHT22;37713;53.254;6.460;2022-10-16T05:46:55;11.70;99.90
51637;DHT22;37713;53.254;6.460;2022-10-16T05:49:21;11.70;99.90
51637;DHT22;37713;53.254;6.460;2022-10-16T05:51:47;11.80;99.90
51637;DHT22;37713;53.254;6.460;2022-10-16T05:54:12;11.90;99.90
51637;DHT22;37713;53.254;6.460;2022-10-16T05:56:38;11.90;99.90
51637;DHT22;37713;53.254;6.460;2022-10-16T05:59:04;11.80;99.90
51637;DHT22;37713;53.254;6.460;2022-10-16T06:01:30;11.80;99.90
51637;DHT22;37713;53.254;6.460;2022-10-16T06:03:57;11.50;99.90
51637;DHT22;37713;53.254;6.460;2022-10-16T06:06:25;11.70;99.90
51637;DHT22;37713;53.254;6.460;2022-10-16T06:08:52;11.40;99.90
51637;DHT22;37713;53.254;6.460;2022-10-16T06:11:21;11.60;99.90
51637;DHT22;37713;53.254;6.460;2022-10-16T06:13:51;11.50;99.90
51637;DHT22;37713;53.254;6.460;2022-10-16T06:16:17;11.60;99.90
51637;DHT22;37713;53.254;6.460;2022-10-16T06:18:43;11.50;99.90
51637;DHT22;37713;53.254;6.460;2022-10-16T06:21:17;11.40;99.90
51637;DHT22;37713;53.254;6.460;2022-10-16T06:23:43;11.40;99.90
51637;DHT22;37713;53.254;6.460;2022-10-16T06:26:11;11.50;99.90
51637;DHT22;37713;53.254;6.460;2022-10-16T06:28:37;11.70;99.90
51637;DHT22;37713;53.254;6.460;2022-10-16T06:31:05;11.80;99.90
51637;DHT22;37713;53.254;6.460;2022-10-16T06:33:31;11.60;99.90
51637;DHT22;37713;53.254;6.460;2022-10-16T06:36:05;11.70;99.90
51637;DHT22;37713;53.254;6.460;2022-10-16T06:38:32;11.90;99.90
51637;DHT22;37713;53.254;6.460;2022-10-16T06:40:58;11.70;99.90
51637;DHT22;37713;53.254;6.460;2022-10-16T06:43:24;11.90;99.90
51637;DHT22;37713;53.254;6.460;2022-10-16T06:45:51;11.80;99.90
51637;DHT22;37713;53.254;6.460;2022-10-16T06:48:18;12.00;99.90
51637;DHT22;37713;53.254;6.460;2022-10-16T06:50:43;11.90;99.90
51637;DHT22;37713;53.254;6.460;2022-10-16T06:53:09;11.90;99.90
51637;DHT22;37713;53.254;6.460;2022-10-16T06:55:35;11.80;99.90
51637;DHT22;37713;53.254;6.460;2022-10-16T06:58:00;11.90;99.90
51637;DHT22;37713;53.254;6.460;2022-10-16T07:00:26;11.80;99.90
51637;DHT22;37713;53.254;6.460;2022-10-16T07:02:52;12.10;99.90
51637;DHT22;37713;53.254;6.460;2022-10-16T07:05:17;11.90;99.90
51637;DHT22;37713;53.254;6.460;2022-10-16T07:07:43;12.00;99.90
51637;DHT22;37713;53.254;6.460;2022-10-16T07:10:09;11.90;99.90
51637;DHT22;37713;53.254;6.460;2022-10-16T07:12:34;12.10;99.90
51637;DHT22;37713;53.254;6.460;2022-10-16T07:15:00;12.30;99.90
51637;DHT22;37713;53.254;6.460;2022-10-16T07:17:26;12.30;99.90
51637;DHT22;37713;53.254;6.460;2022-10-16T07:19:52;12.40;99.90
51637;DHT22;37713;53.254;6.460;2022-10-16T07:22:18;12.20;99.90
51637;DHT22;37713;53.254;6.460;2022-10-16T07:24:44;12.40;99.90
51637;DHT22;37713;53.254;6.460;2022-10-16T07:27:10;12.50;99.90
51637;DHT22;37713;53.254;6.460;2022-10-16T07:29:36;12.30;99.90
51637;DHT22;37713;53.254;6.460;2022-10-16T07:32:01;12.50;99.90
51637;DHT22;37713;53.254;6.460;2022-10-16T07:34:28;12.50;99.90
51637;DHT22;37713;53.254;6.460;2022-10-16T07:36:53;12.50;99.90
51637;DHT22;37713;53.254;6.460;2022-10-16T07:39:19;12.50;99.90
51637;DHT22;37713;53.254;6.460;2022-10-16T07:41:45;12.60;99.90
51637;DHT22;37713;53.254;6.460;2022-10-16T07:44:10;12.70;99.90
51637;DHT22;37713;53.254;6.460;2022-10-16T07:46:36;12.90;99.90
51637;DHT22;37713;53.254;6.460;2022-10-16T07:49:03;12.60;99.90
51637;DHT22;37713;53.254;6.460;2022-10-16T07:51:29;12.70;99.90
51637;DHT22;37713;53.254;6.460;2022-10-16T07:53:55;12.70;99.90
51637;DHT22;37713;53.254;6.460;2022-10-16T07:56:21;12.50;99.90
51637;DHT22;37713;53.254;6.460;2022-10-16T07:58:47;12.40;99.90
51637;DHT22;37713;53.254;6.460;2022-10-16T08:01:16;12.60;99.90
51637;DHT22;37713;53.254;6.460;2022-10-16T08:03:47;12.30;99.90
51637;DHT22;37713;53.254;6.460;2022-10-16T08:06:13;12.50;99.90
51637;DHT22;37713;53.254;6.460;2022-10-16T08:08:39;12.40;99.90
51637;DHT22;37713;53.254;6.460;2022-10-16T08:11:05;12.30;99.90
51637;DHT22;37713;53.254;6.460;2022-10-16T08:13:31;12.40;99.90
51637;DHT22;37713;53.254;6.460;2022-10-16T08:15:58;12.50;99.90
51637;DHT22;37713;53.254;6.460;2022-10-16T08:18:24;12.60;99.90
51637;DHT22;37713;53.254;6.460;2022-10-16T08:20:58;12.90;99.90
51637;DHT22;37713;53.254;6.460;2022-10-16T08:23:25;12.90;99.90
51637;DHT22;37713;53.254;6.460;2022-10-16T08:25:52;13.00;99.90
51637;DHT22;37713;53.254;6.460;2022-10-16T08:28:19;13.10;99.90
51637;DHT22;37713;53.254;6.460;2022-10-16T08:30:45;13.40;99.90
51637;DHT22;37713;53.254;6.460;2022-10-16T08:33:11;13.30;99.90
51637;DHT22;37713;53.254;6.460;2022-10-16T08:35:37;13.50;99.90
51637;DHT22;37713;53.254;6.460;2022-10-16T08:38:04;13.50;99.90
51637;DHT22;37713;53.254;6.460;2022-10-16T08:40:31;13.30;99.90
51637;DHT22;37713;53.254;6.460;2022-10-16T08:43:14;13.30;99.90
51637;DHT22;37713;53.254;6.460;2022-10-16T08:45:58;13.30;99.90
51637;DHT22;37713;53.254;6.460;2022-10-16T08:48:45;13.60;99.90
51637;DHT22;37713;53.254;6.460;2022-10-16T08:51:37;13.70;99.90
51637;DHT22;37713;53.254;6.460;2022-10-16T08:56:38;13.80;99.90
51637;DHT22;37713;53.254;6.460;2022-10-16T08:59:09;13.70;99.90
51637;DHT22;37713;53.254;6.460;2022-10-16T09:01:40;13.80;99.90
51637;DHT22;37713;53.254;6.460;2022-10-16T09:12:19;13.90;99.90
51637;DHT22;37713;53.254;6.460;2022-10-16T09:22:37;14.50;99.90
51637;DHT22;37713;53.254;6.460;2022-10-16T09:25:18;14.60;99.90
51637;DHT22;37713;53.254;6.460;2022-10-16T09:27:47;14.60;99.90
51637;DHT22;37713;53.254;6.460;2022-10-16T09:30:18;14.70;99.90
51637;DHT22;37713;53.254;6.460;2022-10-16T09:32:46;14.80;99.90
51637;DHT22;37713;53.254;6.460;2022-10-16T09:35:21;14.90;99.90
51637;DHT22;37713;53.254;6.460;2022-10-16T09:37:50;15.00;99.90
51637;DHT22;37713;53.254;6.460;2022-10-16T09:40:34;15.00;99.90
51637;DHT22;37713;53.254;6.460;2022-10-16T09:43:46;15.10;99.90
51637;DHT22;37713;53.254;6.460;2022-10-16T09:48:57;15.10;99.90
51637;DHT22;37713;53.254;6.460;2022-10-16T09:51:30;15.10;99.90
51637;DHT22;37713;53.254;6.460;2022-10-16T09:53:59;15.10;99.90
51637;DHT22;37713;53.254;6.460;2022-10-16T09:56:31;15.10;99.90
51637;DHT22;37713;53.254;6.460;2022-10-16T09:59:00;15.20;99.90
51637;DHT22;37713;53.254;6.460;2022-10-16T10:01:31;15.20;99.90
51637;DHT22;37713;53.254;6.460;2022-10-16T10:04:00;15.10;99.90
51637;DHT22;37713;53.254;6.460;2022-10-16T10:06:49;15.10;99.90
51637;DHT22;37713;53.254;6.460;2022-10-16T10:11:59;15.20;99.90
51637;DHT22;37713;53.254;6.460;2022-10-16T10:17:13;15.20;99.90
51637;DHT22;37713;53.254;6.460;2022-10-16T10:25:26;15.30;99.90
51637;DHT22;37713;53.254;6.460;2022-10-16T10:38:43;15.90;99.90
51637;DHT22;37713;53.254;6.460;2022-10-16T10:41:27;16.00;99.90
51637;DHT22;37713;53.254;6.460;2022-10-16T10:46:45;16.00;99.90
51637;DHT22;37713;53.254;6.460;2022-10-16T10:55:22;15.90;99.90
51637;DHT22;37713;53.254;6.460;2022-10-16T10:58:20;15.60;99.90
51637;DHT22;37713;53.254;6.460;2022-10-16T11:06:39;15.50;99.90
51637;DHT22;37713;53.254;6.460;2022-10-16T11:09:17;15.50;99.90
51637;DHT22;37713;53.254;6.460;2022-10-16T11:11:50;15.60;99.90
51637;DHT22;37713;53.254;6.460;2022-10-16T11:17:45;16.00;99.90
51637;DHT22;37713;53.254;6.460;2022-10-16T11:20:14;16.10;99.90
51637;DHT22;37713;53.254;6.460;2022-10-16T11:22:55;16.10;99.90
51637;DHT22;37713;53.254;6.460;2022-10-16T11:25:32;15.90;99.90
51637;DHT22;37713;53.254;6.460;2022-10-16T11:28:03;15.80;99.90
51637;DHT22;37713;53.254;6.460;2022-10-16T11:30:52;15.80;99.90
51637;DHT22;37713;53.254;6.460;2022-10-16T11:33:24;15.80;99.90
51637;DHT22;37713;53.254;6.460;2022-10-16T11:41:35;15.50;99.90
51637;DHT22;37713;53.254;6.460;2022-10-16T11:44:27;15.30;99.90
51637;DHT22;37713;53.254;6.460;2022-10-16T11:49:33;15.10;99.90
51637;DHT22;37713;53.254;6.460;2022-10-16T11:52:22;15.10;99.90
51637;DHT22;37713;53.254;6.460;2022-10-16T11:54:52;15.20;99.90
51637;DHT22;37713;53.254;6.460;2022-10-16T11:57:24;15.30;99.90
51637;DHT22;37713;53.254;6.460;2022-10-16T12:00:05;15.50;99.90
51637;DHT22;37713;53.254;6.460;2022-10-16T12:02:43;15.80;99.90
51637;DHT22;37713;53.254;6.460;2022-10-16T12:08:15;16.40;99.90
51637;DHT22;37713;53.254;6.460;2022-10-16T12:10:42;16.70;99.90
51637;DHT22;37713;53.254;6.460;2022-10-16T12:16:24;16.90;99.90
51637;DHT22;37713;53.254;6.460;2022-10-16T12:19:15;16.90;99.90
51637;DHT22;37713;53.254;6.460;2022-10-16T12:21:42;16.80;99.90
51637;DHT22;37713;53.254;6.460;2022-10-16T12:26:46;16.40;99.90
51637;DHT22;37713;53.254;6.460;2022-10-16T12:32:05;16.10;99.90
51637;DHT22;37713;53.254;6.460;2022-10-16T12:34:44;16.00;99.90
51637;DHT22;37713;53.254;6.460;2022-10-16T12:37:22;15.80;99.90
51637;DHT22;37713;53.254;6.460;2022-10-16T12:39:49;15.60;99.90
51637;DHT22;37713;53.254;6.460;2022-10-16T12:42:21;15.50;99.90
51637;DHT22;37713;53.254;6.460;2022-10-16T12:44:47;15.40;99.90
51637;DHT22;37713;53.254;6.460;2022-10-16T12:47:35;15.30;99.90
51637;DHT22;37713;53.254;6.460;2022-10-16T12:50:01;15.20;99.90
51637;DHT22;37713;53.254;6.460;2022-10-16T12:54:59;15.10;99.90
51637;DHT22;37713;53.254;6.460;2022-10-16T13:00:28;15.00;99.90
51637;DHT22;37713;53.254;6.460;2022-10-16T13:03:14;15.00;99.90
51637;DHT22;37713;53.254;6.460;2022-10-16T13:09:07;14.90;99.90
51637;DHT22;37713;53.254;6.460;2022-10-16T13:11:52;14.90;99.90
51637;DHT22;37713;53.254;6.460;2022-10-16T13:17:11;14.90;99.90
51637;DHT22;37713;53.254;6.460;2022-10-16T13:27:56;14.90;99.90
51637;DHT22;37713;53.254;6.460;2022-10-16T13:30:25;15.00;99.90
51637;DHT22;37713;53.254;6.460;2022-10-16T13:33:16;15.00;99.90
51637;DHT22;37713;53.254;6.460;2022-10-16T13:35:49;15.00;99.90
51637;DHT22;37713;53.254;6.460;2022-10-16T13:38:21;15.00;99.90
51637;DHT22;37713;53.254;6.460;2022-10-16T13:41:02;15.00;99.90
51637;DHT22;37713;53.254;6.460;2022-10-16T13:46:12;15.10;99.90
51637;DHT22;37713;53.254;6.460;2022-10-16T13:48:38;15.10;99.90
51637;DHT22;37713;53.254;6.460;2022-10-16T13:51:14;15.10;99.90
51637;DHT22;37713;53.254;6.460;2022-10-16T13:53:41;15.20;99.90
51637;DHT22;37713;53.254;6.460;2022-10-16T13:56:14;15.20;99.90
51637;DHT22;37713;53.254;6.460;2022-10-16T13:58:40;15.30;99.90
51637;DHT22;37713;53.254;6.460;2022-10-16T14:01:25;15.30;99.90
51637;DHT22;37713;53.254;6.460;2022-10-16T14:03:52;15.30;99.90
51637;DHT22;37713;53.254;6.460;2022-10-16T14:06:22;15.30;99.90
51637;DHT22;37713;53.254;6.460;2022-10-16T14:09:07;15.30;99.90
51637;DHT22;37713;53.254;6.460;2022-10-16T14:11:38;15.20;99.90
51637;DHT22;37713;53.254;6.460;2022-10-16T14:14:11;15.20;99.90
51637;DHT22;37713;53.254;6.460;2022-10-16T14:16:41;15.20;99.90
51637;DHT22;37713;53.254;6.460;2022-10-16T14:19:22;15.20;99.90
51637;DHT22;37713;53.254;6.460;2022-10-16T14:21:51;15.10;99.90
51637;DHT22;37713;53.254;6.460;2022-10-16T14:26:53;15.10;99.90
51637;DHT22;37713;53.254;6.460;2022-10-16T14:29:24;15.10;99.90
51637;DHT22;37713;53.254;6.460;2022-10-16T14:32:00;15.00;99.90
51637;DHT22;37713;53.254;6.460;2022-10-16T14:36:55;14.90;99.90
51637;DHT22;37713;53.254;6.460;2022-10-16T14:39:22;14.90;99.90
51637;DHT22;37713;53.254;6.460;2022-10-16T14:41:50;14.90;99.90
51637;DHT22;37713;53.254;6.460;2022-10-16T14:44:21;14.80;99.90
51637;DHT22;37713;53.254;6.460;2022-10-16T14:46:48;14.80;99.90
51637;DHT22;37713;53.254;6.460;2022-10-16T14:49:19;14.70;99.90
51637;DHT22;37713;53.254;6.460;2022-10-16T14:51:46;14.70;99.90
51637;DHT22;37713;53.254;6.460;2022-10-16T14:54:16;14.60;99.90
51637;DHT22;37713;53.254;6.460;2022-10-16T14:56:56;14.50;99.90
51637;DHT22;37713;53.254;6.460;2022-10-16T14:59:30;14.50;99.90
51637;DHT22;37713;53.254;6.460;2022-10-16T15:01:58;14.40;99.90
51637;DHT22;37713;53.254;6.460;2022-10-16T15:04:24;14.30;99.90
51637;DHT22;37713;53.254;6.460;2022-10-16T15:06:49;14.30;99.90
51637;DHT22;37713;53.254;6.460;2022-10-16T15:09:15;14.20;99.90
51637;DHT22;37713;53.254;6.460;2022-10-16T15:11:42;14.20;99.90
51637;DHT22;37713;53.254;6.460;2022-10-16T15:14:12;14.10;99.90
51637;DHT22;37713;53.254;6.460;2022-10-16T15:16:38;14.20;99.90
51637;DHT22;37713;53.254;6.460;2022-10-16T15:19:04;14.10;99.90
51637;DHT22;37713;53.254;6.460;2022-10-16T15:21:32;14.10;99.90
51637;DHT22;37713;53.254;6.460;2022-10-16T15:23:59;14.10;99.90
51637;DHT22;37713;53.254;6.460;2022-10-16T15:26:27;14.10;99.90
51637;DHT22;37713;53.254;6.460;2022-10-16T15:28:53;14.10;99.90
51637;DHT22;37713;53.254;6.460;2022-10-16T15:31:19;14.00;99.90
51637;DHT22;37713;53.254;6.460;2022-10-16T15:33:45;14.00;99.90
51637;DHT22;37713;53.254;6.460;2022-10-16T15:36:23;13.90;99.90
51637;DHT22;37713;53.254;6.460;2022-10-16T15:38:49;13.90;99.90
51637;DHT22;37713;53.254;6.460;2022-10-16T15:41:15;13.80;99.90
51637;DHT22;37713;53.254;6.460;2022-10-16T15:43:40;13.80;99.90
51637;DHT22;37713;53.254;6.460;2022-10-16T15:46:11;13.80;99.90
51637;DHT22;37713;53.254;6.460;2022-10-16T15:48:37;13.70;99.90
51637;DHT22;37713;53.254;6.460;2022-10-16T15:51:07;13.60;99.90
51637;DHT22;37713;53.254;6.460;2022-10-16T15:53:33;13.60;99.90
51637;DHT22;37713;53.254;6.460;2022-10-16T15:56:06;13.60;99.90
51637;DHT22;37713;53.254;6.460;2022-10-16T15:58:33;13.50;99.90
51637;DHT22;37713;53.254;6.460;2022-10-16T16:01:00;13.40;99.90
51637;DHT22;37713;53.254;6.460;2022-10-16T16:03:27;13.30;99.90
51637;DHT22;37713;53.254;6.460;2022-10-16T16:05:54;13.40;99.90
51637;DHT22;37713;53.254;6.460;2022-10-16T16:08:20;13.30;99.90
51637;DHT22;37713;53.254;6.460;2022-10-16T16:11:07;13.20;99.90
51637;DHT22;37713;53.254;6.460;2022-10-16T16:13:33;13.10;99.90
51637;DHT22;37713;53.254;6.460;2022-10-16T16:15:59;13.10;99.90
51637;DHT22;37713;53.254;6.460;2022-10-16T16:18:25;13.00;99.90
51637;DHT22;37713;53.254;6.460;2022-10-16T16:20:51;12.90;99.90
51637;DHT22;37713;53.254;6.460;2022-10-16T16:23:17;12.80;99.90
51637;DHT22;37713;53.254;6.460;2022-10-16T16:25:44;12.80;99.90
51637;DHT22;37713;53.254;6.460;2022-10-16T16:28:10;12.70;99.90
51637;DHT22;37713;53.254;6.460;2022-10-16T16:30:40;12.60;99.90
51637;DHT22;37713;53.254;6.460;2022-10-16T16:33:06;12.60;99.90
51637;DHT22;37713;53.254;6.460;2022-10-16T16:35:32;12.50;99.90
51637;DHT22;37713;53.254;6.460;2022-10-16T16:37:58;12.40;99.90
51637;DHT22;37713;53.254;6.460;2022-10-16T16:40:24;12.40;99.90
51637;DHT22;37713;53.254;6.460;2022-10-16T16:42:49;12.30;99.90
51637;DHT22;37713;53.254;6.460;2022-10-16T16:45:15;12.30;99.90
51637;DHT22;37713;53.254;6.460;2022-10-16T16:47:41;12.30;99.90
51637;DHT22;37713;53.254;6.460;2022-10-16T16:50:07;12.20;99.90
51637;DHT22;37713;53.254;6.460;2022-10-16T16:52:34;12.10;99.90
51637;DHT22;37713;53.254;6.460;2022-10-16T16:55:00;12.00;99.90
51637;DHT22;37713;53.254;6.460;2022-10-16T16:57:27;12.00;99.90
51637;DHT22;37713;53.254;6.460;2022-10-16T16:59:52;12.00;99.90
51637;DHT22;37713;53.254;6.460;2022-10-16T17:02:18;11.90;99.90
51637;DHT22;37713;53.254;6.460;2022-10-16T17:04:44;11.90;99.90
51637;DHT22;37713;53.254;6.460;2022-10-16T17:07:10;11.90;99.90
51637;DHT22;37713;53.254;6.460;2022-10-16T17:09:35;11.80;99.90
51637;DHT22;37713;53.254;6.460;2022-10-16T17:12:01;11.70;99.90
51637;DHT22;37713;53.254;6.460;2022-10-16T17:14:27;11.60;99.90
51637;DHT22;37713;53.254;6.460;2022-10-16T17:16:52;11.60;99.90
51637;DHT22;37713;53.254;6.460;2022-10-16T17:19:19;11.60;99.90
51637;DHT22;37713;53.254;6.460;2022-10-16T17:21:48;11.50;99.90
51637;DHT22;37713;53.254;6.460;2022-10-16T17:24:14;11.50;99.90
51637;DHT22;37713;53.254;6.460;2022-10-16T17:26:40;11.50;99.90
51637;DHT22;37713;53.254;6.460;2022-10-16T17:29:12;11.40;99.90
51637;DHT22;37713;53.254;6.460;2022-10-16T17:31:38;11.50;99.90
51637;DHT22;37713;53.254;6.460;2022-10-16T17:34:06;11.40;99.90
51637;DHT22;37713;53.254;6.460;2022-10-16T17:36:35;11.40;99.90
51637;DHT22;37713;53.254;6.460;2022-10-16T17:39:05;11.30;99.90
51637;DHT22;37713;53.254;6.460;2022-10-16T17:41:31;11.50;99.90
51637;DHT22;37713;53.254;6.460;2022-10-16T17:44:01;11.40;99.90
51637;DHT22;37713;53.254;6.460;2022-10-16T17:46:27;11.30;99.90
51637;DHT22;37713;53.254;6.460;2022-10-16T17:48:53;11.30;99.90
51637;DHT22;37713;53.254;6.460;2022-10-16T17:51:22;11.30;99.90
51637;DHT22;37713;53.254;6.460;2022-10-16T17:53:50;11.30;99.90
51637;DHT22;37713;53.254;6.460;2022-10-16T17:56:17;11.30;99.90